Cape Hatteras, North Carolina
Current Conditions -  °F | °C
As of 1:51 PM on Friday 31 Oct 2014 (Local Time) from KHSE Reporting Station
Overcast Overcast  
Wind Chill: 64°   Ceiling: 2700
Heat Index: 64°   Visibility: 10mi
Dew Point: 53°   Wind: 14mph
Humidity: 67%   Direction: 20°NNE
Pressure: 29.77"   Gusts: 22mph
Location:  35.23°N, 75.62°W
Report Text: KHSE 311751Z AUTO 02012G19KT 10SM OVC027 18/12 A2977 RMK AO2 SLP079 60014 T01780117 10178 20133 58019 TSNO
Loading
Personal Weather Stations






























Interactive Weather Map
Tropical Storm Tracking
New forecast layout! Learn more

10-Day Weather Forecast

Advertisements
Track Severe Weather on mobile